Time;durP1;ratioP1;P1;durP2;ratioP2;P2;SDS_P1;SDS_P2;PMS_P1;PMS_P2;Temp;Humidity;BMP_temperature;BMP_pressure;BME280_temperature;BME280_humidity;BME280_pressure;Samples;Min_cycle;Max_cycle;Signal;HPM_P1;HPM_P2
2024/01/02 00:00:16;;;;;;;5.53;2.20;;;;;;;6.11;100.00;99267.19;4982596;28;20207;-69
2024/01/02 00:02:42;;;;;;;9.77;2.63;;;;;;;5.97;100.00;99264.47;5001068;28;20190;-69
2024/01/02 00:05:07;;;;;;;3.87;1.93;;;;;;;5.88;100.00;99270.00;4991730;28;20284;-69
2024/01/02 00:07:33;;;;;;;7.93;2.10;;;;;;;5.74;100.00;99265.56;4993760;28;20187;-68
2024/01/02 00:09:58;;;;;;;7.73;2.20;;;;;;;5.71;100.00;99260.63;4994973;28;20234;-69
2024/01/02 00:12:23;;;;;;;5.00;2.47;;;;;;;5.77;100.00;99250.94;4996427;28;20230;-70
2024/01/02 00:14:50;;;;;;;7.80;2.60;;;;;;;5.72;100.00;99244.38;4994761;28;20183;-69
2024/01/02 00:17:15;;;;;;;5.37;1.93;;;;;;;5.55;100.00;99235.81;4994266;28;20198;-68
2024/01/02 00:19:41;;;;;;;8.67;2.30;;;;;;;5.57;100.00;99241.69;5009234;28;20572;-68
2024/01/02 00:22:06;;;;;;;10.20;2.67;;;;;;;5.58;100.00;99237.41;4999662;28;20238;-69
2024/01/02 00:24:31;;;;;;;7.40;2.17;;;;;;;5.61;100.00;99232.97;5008530;28;20186;-69
2024/01/02 00:26:56;;;;;;;7.60;2.17;;;;;;;5.58;100.00;99225.50;4994098;28;20258;-68
2024/01/02 00:29:22;;;;;;;5.63;2.27;;;;;;;5.64;100.00;99219.25;4994266;28;20238;-68
2024/01/02 00:31:47;;;;;;;7.13;2.27;;;;;;;5.48;100.00;99214.91;4973370;28;20225;-69
2024/01/02 00:34:13;;;;;;;9.00;2.77;;;;;;;5.46;100.00;99213.31;5013951;28;20252;-69
2024/01/02 00:36:38;;;;;;;6.73;2.33;;;;;;;5.42;100.00;99207.53;5028810;28;20266;-69
2024/01/02 00:39:03;;;;;;;6.30;2.30;;;;;;;5.58;100.00;99196.59;5011949;28;20194;-68
2024/01/02 00:41:28;;;;;;;5.17;2.47;;;;;;;5.59;100.00;99193.94;5010174;28;20960;-68
2024/01/02 00:43:54;;;;;;;11.47;2.13;;;;;;;5.77;100.00;99188.88;4999862;28;20315;-69
2024/01/02 00:46:19;;;;;;;7.63;2.17;;;;;;;5.91;100.00;99177.97;4993328;28;20198;-70
2024/01/02 00:48:44;;;;;;;3.30;1.43;;;;;;;6.00;100.00;99180.09;4993776;28;20211;-69
2024/01/02 00:51:11;;;;;;;4.73;1.50;;;;;;;6.05;100.00;99175.56;4985972;28;20233;-71
2024/01/02 00:53:36;;;;;;;7.33;2.30;;;;;;;5.97;100.00;99159.81;4993712;28;20179;-70
2024/01/02 00:56:02;;;;;;;5.17;1.83;;;;;;;5.97;100.00;99158.06;4986659;28;20187;-69
2024/01/02 00:58:27;;;;;;;5.23;1.63;;;;;;;5.95;100.00;99154.78;4992696;28;20191;-70
2024/01/02 01:00:52;;;;;;;4.80;1.73;;;;;;;6.05;100.00;99156.88;4990004;28;20222;-69
2024/01/02 01:03:17;;;;;;;3.53;1.97;;;;;;;6.14;100.00;99149.59;4992591;28;20628;-70
2024/01/02 01:05:43;;;;;;;7.37;1.90;;;;;;;6.04;100.00;99135.66;4994065;28;20198;-70
2024/01/02 01:08:08;;;;;;;6.37;1.60;;;;;;;6.10;100.00;99130.22;4993833;28;20179;-71
2024/01/02 01:10:33;;;;;;;3.77;2.00;;;;;;;6.13;100.00;99119.03;4987378;28;20230;-71
2024/01/02 01:12:58;;;;;;;5.17;1.40;;;;;;;6.11;100.00;99120.81;5004827;28;20241;-71
2024/01/02 01:15:24;;;;;;;4.63;1.60;;;;;;;6.17;100.00;99117.94;4992424;28;20733;-70
2024/01/02 01:17:49;;;;;;;5.43;1.33;;;;;;;6.05;100.00;99116.03;4993241;28;20322;-70
2024/01/02 01:20:14;;;;;;;3.67;1.60;;;;;;;6.00;100.00;99108.59;4985007;28;20234;-70
2024/01/02 01:22:39;;;;;;;3.93;1.47;;;;;;;5.94;100.00;99107.19;5006788;28;20245;-70
2024/01/02 01:25:05;;;;;;;3.77;1.60;;;;;;;5.77;100.00;99099.56;4993586;28;20180;-70
2024/01/02 01:27:30;;;;;;;9.17;1.87;;;;;;;5.66;100.00;99088.16;4992793;28;20180;-70
2024/01/02 01:29:55;;;;;;;3.67;1.83;;;;;;;5.49;100.00;99083.91;4992164;28;20577;-69
2024/01/02 01:32:21;;;;;;;2.60;1.70;;;;;;;5.49;100.00;99083.06;4988123;28;20236;-70
2024/01/02 01:34:46;;;;;;;3.50;1.43;;;;;;;5.53;100.00;99076.09;4993399;28;20267;-70
2024/01/02 01:37:11;;;;;;;8.50;1.70;;;;;;;5.53;100.00;99076.09;4991419;28;20542;-70
2024/01/02 01:39:37;;;;;;;4.73;1.60;;;;;;;5.49;100.00;99070.31;4993063;28;20210;-71
2024/01/02 01:42:02;;;;;;;3.43;1.83;;;;;;;5.46;100.00;99066.19;4984656;28;20322;-70
2024/01/02 01:44:28;;;;;;;5.23;1.70;;;;;;;5.44;100.00;99062.06;4994405;28;20187;-70
2024/01/02 01:46:53;;;;;;;4.20;1.60;;;;;;;5.55;100.00;99062.34;4992880;28;20283;-71
2024/01/02 01:49:19;;;;;;;2.90;1.40;;;;;;;5.48;100.00;99056.75;4992891;28;20176;-71
2024/01/02 01:51:45;;;;;;;4.67;1.50;;;;;;;5.40;100.00;99058.03;4995391;28;20277;-72
2024/01/02 01:54:12;;;;;;;5.97;1.97;;;;;;;5.43;100.00;99055.31;4994379;28;20187;-73
2024/01/02 01:56:39;;;;;;;7.77;2.17;;;;;;;5.39;100.00;99047.00;4983899;28;20179;-72
2024/01/02 01:59:05;;;;;;;4.67;1.60;;;;;;;5.45;100.00;99048.44;4991366;28;20546;-71
2024/01/02 02:01:31;;;;;;;4.17;1.40;;;;;;;5.47;100.00;99042.34;4979547;28;20236;-71
2024/01/02 02:03:59;;;;;;;5.40;2.10;;;;;;;5.43;100.00;99034.91;4986770;28;20183;-71
2024/01/02 02:06:24;;;;;;;6.90;1.63;;;;;;;5.50;100.00;99037.06;4984270;28;20306;-71
2024/01/02 02:08:50;;;;;;;4.40;1.30;;;;;;;5.43;100.00;99022.16;5007835;28;20207;-71
2024/01/02 02:11:16;;;;;;;3.53;1.60;;;;;;;5.44;100.00;99005.97;4976726;28;20231;-72
2024/01/02 02:13:42;;;;;;;4.40;1.60;;;;;;;5.41;100.00;99006.94;4997403;28;20580;-71
2024/01/02 02:16:07;;;;;;;3.63;1.60;;;;;;;5.40;100.00;99004.47;4996090;28;20189;-71
2024/01/02 02:18:33;;;;;;;5.70;1.50;;;;;;;5.37;100.00;98995.25;5005383;28;20188;-71
2024/01/02 02:20:58;;;;;;;2.23;1.53;;;;;;;5.38;100.00;98988.44;4983125;28;20235;-71
2024/01/02 02:23:23;;;;;;;4.03;1.60;;;;;;;5.38;100.00;98986.69;4986939;28;20191;-71
2024/01/02 02:25:48;;;;;;;4.57;1.30;;;;;;;5.32;100.00;98976.78;4992375;28;20590;-71
2024/01/02 02:28:14;;;;;;;3.70;2.10;;;;;;;5.26;100.00;98970.31;4992055;28;20176;-71
2024/01/02 02:30:39;;;;;;;1.40;1.30;;;;;;;5.28;100.00;98965.97;4983963;28;20693;-71
2024/01/02 02:33:04;;;;;;;4.57;1.63;;;;;;;5.23;100.00;98955.13;5000726;28;20184;-70
2024/01/02 02:35:30;;;;;;;5.40;1.37;;;;;;;5.26;100.00;98941.41;4992289;28;20713;-70
2024/01/02 02:37:56;;;;;;;5.50;1.50;;;;;;;5.26;100.00;98932.06;5006024;28;20540;-70
2024/01/02 02:40:21;;;;;;;4.93;1.47;;;;;;;5.22;100.00;98927.19;4984506;28;20227;-69
2024/01/02 02:42:46;;;;;;;4.60;1.20;;;;;;;5.23;100.00;98916.91;5005184;28;20232;-69
2024/01/02 02:45:12;;;;;;;3.83;1.67;;;;;;;5.17;100.00;98912.97;4992080;28;20191;-68
2024/01/02 02:47:37;;;;;;;4.77;1.40;;;;;;;5.13;100.00;98901.25;4991674;28;20207;-68
2024/01/02 02:50:05;;;;;;;4.27;1.60;;;;;;;5.15;100.00;98889.25;4987031;28;20209;-68
2024/01/02 02:52:31;;;;;;;4.40;1.70;;;;;;;5.16;100.00;98890.09;5005201;28;20202;-69
2024/01/02 02:54:57;;;;;;;2.43;1.33;;;;;;;5.15;100.00;98884.16;5006320;28;20204;-68
2024/01/02 02:57:22;;;;;;;3.30;2.07;;;;;;;5.14;100.00;98882.50;4991251;28;20282;-68
2024/01/02 02:59:47;;;;;;;5.27;1.40;;;;;;;5.11;100.00;98880.13;4992414;28;20272;-67
2024/01/02 03:02:12;;;;;;;2.57;1.60;;;;;;;5.08;100.00;98870.06;4980826;28;20329;-67
2024/01/02 03:04:38;;;;;;;3.90;1.30;;;;;;;5.10;100.00;98847.88;4991785;28;20176;-67
2024/01/02 03:07:03;;;;;;;2.77;1.27;;;;;;;5.15;100.00;98842.56;4991600;28;20650;-67
2024/01/02 03:09:28;;;;;;;2.50;1.50;;;;;;;5.17;100.00;98836.47;4991605;28;20187;-68
2024/01/02 03:11:53;;;;;;;2.10;1.20;;;;;;;5.14;100.00;98828.16;4995449;28;20572;-68
2024/01/02 03:14:19;;;;;;;2.40;1.47;;;;;;;5.15;100.00;98822.97;4992797;28;20183;-68
2024/01/02 03:16:44;;;;;;;2.47;1.20;;;;;;;5.15;100.00;98812.78;5006155;28;20218;-67
2024/01/02 03:19:09;;;;;;;2.60;1.40;;;;;;;5.10;100.00;98806.28;5006025;28;20282;-67
2024/01/02 03:21:35;;;;;;;2.40;1.43;;;;;;;5.08;100.00;98791.06;4992550;28;20222;-68
2024/01/02 03:24:02;;;;;;;1.13;1.03;;;;;;;5.04;100.00;98783.69;4995315;28;20651;-69
2024/01/02 03:26:28;;;;;;;1.77;1.30;;;;;;;5.07;100.00;98776.66;4990644;28;20237;-66
2024/01/02 03:28:53;;;;;;;2.73;1.43;;;;;;;5.06;100.00;98771.66;4992161;28;20671;-67
2024/01/02 03:31:18;;;;;;;2.23;1.43;;;;;;;4.99;100.00;98769.44;4991638;28;20215;-67
2024/01/02 03:33:44;;;;;;;3.33;1.27;;;;;;;4.99;100.00;98768.63;5009982;28;20204;-67
2024/01/02 03:36:18;;;;;;;1.63;1.43;;;;;;;4.95;100.00;98767.13;5011248;28;20220;-67
2024/01/02 03:38:51;;;;;;;2.97;1.60;;;;;;;4.97;100.00;98762.78;5009337;28;20182;-68
2024/01/02 03:41:17;;;;;;;1.93;1.43;;;;;;;4.95;100.00;98754.38;5000688;28;20229;-67
2024/01/02 03:43:42;;;;;;;1.10;1.10;;;;;;;4.92;100.00;98744.38;5002052;28;20261;-67
2024/01/02 03:46:08;;;;;;;1.43;1.27;;;;;;;4.92;100.00;98741.81;4995438;28;20193;-68
2024/01/02 03:48:34;;;;;;;4.60;1.60;;;;;;;4.91;100.00;98722.31;4994956;28;20586;-69
2024/01/02 03:51:01;;;;;;;1.90;1.63;;;;;;;4.91;100.00;98720.63;4991089;28;20312;-68
2024/01/02 03:53:26;;;;;;;1.70;1.17;;;;;;;4.93;100.00;98713.69;4993661;28;20198;-68
2024/01/02 03:55:51;;;;;;;6.83;1.77;;;;;;;4.93;100.00;98705.25;4995169;28;20187;-68
2024/01/02 03:58:17;;;;;;;2.73;1.47;;;;;;;4.89;100.00;98706.28;4994896;28;20183;-68
2024/01/02 04:00:42;;;;;;;7.87;1.53;;;;;;;4.82;100.00;98693.88;4995472;28;20730;-68
2024/01/02 04:03:07;;;;;;;4.00;1.73;;;;;;;4.80;100.00;98698.25;5024746;28;20187;-69
2024/01/02 04:05:33;;;;;;;2.93;1.40;;;;;;;4.79;100.00;98680.50;5013144;28;20671;-68
2024/01/02 04:07:58;;;;;;;3.50;1.63;;;;;;;4.79;100.00;98681.31;5002859;28;20194;-69
2024/01/02 04:10:23;;;;;;;3.97;1.40;;;;;;;4.76;100.00;98662.81;5003750;28;20284;-68
2024/01/02 04:12:48;;;;;;;2.90;1.77;;;;;;;4.76;100.00;98666.19;5005426;28;20538;-68
2024/01/02 04:15:14;;;;;;;3.07;1.40;;;;;;;4.78;100.00;98649.09;4995009;28;20179;-69
2024/01/02 04:17:39;;;;;;;2.53;1.50;;;;;;;4.81;100.00;98658.28;4994787;28;20179;-68
2024/01/02 04:20:05;;;;;;;3.97;1.60;;;;;;;4.79;100.00;98644.84;4984992;28;20230;-68
2024/01/02 04:22:31;;;;;;;1.93;1.47;;;;;;;4.75;100.00;98641.63;5006823;28;20190;-68
2024/01/02 04:24:56;;;;;;;1.93;1.50;;;;;;;4.76;100.00;98635.59;4994953;28;20188;-68
2024/01/02 04:27:21;;;;;;;3.77;1.73;;;;;;;4.78;100.00;98627.91;4994417;28;20178;-69
2024/01/02 04:29:46;;;;;;;2.20;1.90;;;;;;;4.76;100.00;98616.97;4994630;28;20258;-68
2024/01/02 04:32:14;;;;;;;1.50;1.40;;;;;;;4.75;100.00;98607.69;4979710;28;20226;-69
2024/01/02 04:34:39;;;;;;;3.07;1.50;;;;;;;4.73;100.00;98617.97;5012585;28;20708;-69
2024/01/02 04:37:05;;;;;;;1.80;1.10;;;;;;;4.72;100.00;98601.03;5012457;28;20216;-69
2024/01/02 04:39:30;;;;;;;2.97;1.60;;;;;;;4.77;100.00;98598.22;5013482;28;20214;-70
2024/01/02 04:41:55;;;;;;;3.80;1.93;;;;;;;4.78;100.00;98602.44;5002727;28;20313;-68
2024/01/02 04:44:21;;;;;;;1.70;1.40;;;;;;;4.79;100.00;98581.16;4996425;28;20183;-69
2024/01/02 04:46:46;;;;;;;3.57;1.43;;;;;;;4.80;100.00;98578.50;4994060;28;20270;-68
2024/01/02 04:49:13;;;;;;;2.93;1.47;;;;;;;4.80;100.00;98575.13;5009168;28;20190;-68
2024/01/02 04:51:38;;;;;;;2.67;1.50;;;;;;;4.81;100.00;98564.88;4995707;28;20240;-69
2024/01/02 04:54:03;;;;;;;1.63;1.40;;;;;;;4.85;100.00;98568.06;4996733;28;20190;-68
2024/01/02 04:56:29;;;;;;;2.43;1.80;;;;;;;4.85;100.00;98548.50;4993719;28;20643;-68
2024/01/02 04:58:54;;;;;;;3.23;1.50;;;;;;;4.91;100.00;98531.22;4994204;28;20179;-68
2024/01/02 05:01:20;;;;;;;3.27;1.50;;;;;;;4.90;100.00;98509.19;4983498;28;20775;-68
2024/01/02 05:03:45;;;;;;;4.00;1.63;;;;;;;4.85;100.00;98507.72;4987614;28;20187;-68
2024/01/02 05:06:10;;;;;;;2.03;1.40;;;;;;;4.90;100.00;98504.09;4994059;28;20183;-71
2024/01/02 05:08:35;;;;;;;1.80;1.70;;;;;;;4.85;100.00;98499.28;4993551;28;20189;-69
2024/01/02 05:11:00;;;;;;;2.43;1.70;;;;;;;4.90;100.00;98488.81;4991326;28;20229;-69
2024/01/02 05:13:26;;;;;;;3.93;1.80;;;;;;;4.93;100.00;98481.81;4999880;28;20288;-68
2024/01/02 05:15:51;;;;;;;1.80;1.70;;;;;;;4.95;100.00;98479.16;4994047;28;20624;-70
2024/01/02 05:18:16;;;;;;;2.60;2.03;;;;;;;5.06;100.00;98473.47;4993157;28;20179;-70
2024/01/02 05:20:42;;;;;;;1.83;1.60;;;;;;;5.01;100.00;98477.09;4985361;28;20249;-70
2024/01/02 05:23:07;;;;;;;2.63;1.70;;;;;;;5.01;100.00;98466.06;4991105;28;20662;-70
2024/01/02 05:25:32;;;;;;;3.20;1.80;;;;;;;5.05;100.00;98479.47;4993676;28;20203;-70
2024/01/02 05:27:58;;;;;;;1.57;1.47;;;;;;;5.10;100.00;98475.75;4991843;28;20262;-69
2024/01/02 05:30:23;;;;;;;2.57;1.67;;;;;;;5.07;100.00;98475.09;4986307;28;22099;-68
2024/01/02 05:32:49;;;;;;;2.77;2.00;;;;;;;5.15;100.00;98480.59;4995746;28;20505;-69
2024/01/02 05:35:14;;;;;;;3.40;1.93;;;;;;;5.28;100.00;98475.56;4993291;28;20179;-69
2024/01/02 05:37:40;;;;;;;2.47;1.43;;;;;;;5.25;100.00;98473.22;4992517;28;20238;-69
2024/01/02 05:40:07;;;;;;;2.50;1.50;;;;;;;5.41;100.00;98479.06;4982543;28;20297;-70
2024/01/02 05:42:32;;;;;;;1.37;1.27;;;;;;;5.50;100.00;98472.59;5008600;28;20263;-70
2024/01/02 05:44:57;;;;;;;1.33;1.20;;;;;;;5.56;100.00;98458.66;4993567;28;20183;-70
2024/01/02 05:47:22;;;;;;;0.80;0.80;;;;;;;5.65;100.00;98452.97;4992471;28;20246;-70
2024/01/02 05:49:47;;;;;;;1.43;0.63;;;;;;;5.90;100.00;98456.59;4993311;28;20190;-70
2024/01/02 05:52:13;;;;;;;0.70;0.70;;;;;;;6.05;100.00;98448.00;4997848;28;20647;-70
2024/01/02 05:54:38;;;;;;;0.60;0.60;;;;;;;6.16;100.00;98441.41;4993184;28;20186;-70
2024/01/02 05:57:03;;;;;;;0.73;0.60;;;;;;;6.27;100.00;98436.44;4992574;28;20297;-71
2024/01/02 05:59:29;;;;;;;0.67;0.67;;;;;;;6.30;100.00;98433.69;4992763;28;20203;-71
2024/01/02 06:01:54;;;;;;;0.60;0.60;;;;;;;6.38;100.00;98436.59;4981846;28;20310;-70
2024/01/02 06:04:19;;;;;;;0.70;0.70;;;;;;;6.45;100.00;98442.94;4989769;28;20191;-71
2024/01/02 06:06:44;;;;;;;0.67;0.60;;;;;;;6.44;100.00;98433.63;4990920;28;20322;-71
2024/01/02 06:09:10;;;;;;;1.03;0.80;;;;;;;6.45;100.00;98450.59;4991677;28;20556;-71
2024/01/02 06:11:35;;;;;;;1.13;0.80;;;;;;;6.50;100.00;98447.75;4993473;28;20234;-70
2024/01/02 06:14:01;;;;;;;1.27;0.53;;;;;;;6.52;100.00;98445.09;4996280;28;20608;-72
2024/01/02 06:16:27;;;;;;;0.50;0.50;;;;;;;6.52;100.00;98437.44;4992267;28;20289;-71
2024/01/02 06:18:52;;;;;;;0.70;0.60;;;;;;;6.56;100.00;98441.41;4992612;28;20588;-70
2024/01/02 06:21:17;;;;;;;0.80;0.60;;;;;;;6.65;100.00;98434.91;4991468;28;20651;-70
2024/01/02 06:23:43;;;;;;;2.27;0.63;;;;;;;6.79;100.00;98439.94;4998015;28;20182;-70
2024/01/02 06:26:08;;;;;;;0.70;0.70;;;;;;;6.71;100.00;98443.00;4992359;28;20197;-71
2024/01/02 06:28:33;;;;;;;0.70;0.70;;;;;;;6.69;100.00;98436.34;4992071;28;20183;-70
2024/01/02 06:31:05;;;;;;;0.67;0.67;;;;;;;6.69;100.00;98437.16;4988854;28;20230;-71
2024/01/02 06:33:30;;;;;;;0.80;0.53;;;;;;;6.70;100.00;98422.63;4983272;28;20266;-70
2024/01/02 06:35:55;;;;;;;0.60;0.60;;;;;;;6.72;100.00;98442.09;4991841;28;20559;-71
2024/01/02 06:38:20;;;;;;;0.40;0.40;;;;;;;6.66;100.00;98437.38;5006941;28;20192;-72
2024/01/02 06:40:46;;;;;;;0.50;0.50;;;;;;;6.67;100.00;98430.50;4986068;28;20233;-71
2024/01/02 06:43:11;;;;;;;0.47;0.40;;;;;;;6.81;100.00;98439.81;4992806;28;20192;-71
2024/01/02 06:45:36;;;;;;;0.40;0.40;;;;;;;6.81;100.00;98427.06;4991964;28;20187;-71
2024/01/02 06:48:02;;;;;;;0.73;0.50;;;;;;;6.77;100.00;98428.97;4991759;28;20223;-71
2024/01/02 06:50:27;;;;;;;0.60;0.60;;;;;;;6.79;100.00;98427.16;4984777;28;20248;-71
2024/01/02 06:52:53;;;;;;;0.97;0.70;;;;;;;6.84;100.00;98432.78;5003878;28;20215;-70
2024/01/02 06:55:18;;;;;;;0.73;0.73;;;;;;;6.88;100.00;98421.41;4991479;28;20179;-70
2024/01/02 06:57:43;;;;;;;0.70;0.70;;;;;;;6.91;100.00;98426.34;4991610;28;20198;-69
2024/01/02 07:00:10;;;;;;;0.47;0.47;;;;;;;6.93;100.00;98431.34;4983001;28;20302;-70
2024/01/02 07:02:36;;;;;;;0.77;0.70;;;;;;;6.92;100.00;98428.00;4991556;28;20203;-70
2024/01/02 07:05:01;;;;;;;1.67;0.50;;;;;;;6.94;100.00;98433.00;4990571;28;20206;-71
2024/01/02 07:07:26;;;;;;;0.50;0.50;;;;;;;6.90;100.00;98440.03;5006352;28;20187;-70
2024/01/02 07:09:51;;;;;;;0.43;0.43;;;;;;;6.88;100.00;98438.50;4992063;28;20191;-69
2024/01/02 07:12:17;;;;;;;0.40;0.40;;;;;;;6.94;100.00;98436.34;4993890;28;20212;-69
2024/01/02 07:14:43;;;;;;;0.60;0.60;;;;;;;7.05;100.00;98438.22;4991776;28;20653;-69
2024/01/02 07:17:08;;;;;;;0.83;0.60;;;;;;;6.97;100.00;98443.03;4991378;28;20718;-69
2024/01/02 07:19:33;;;;;;;0.50;0.50;;;;;;;7.03;100.00;98439.22;4982234;28;20246;-70
2024/01/02 07:21:59;;;;;;;0.50;0.50;;;;;;;7.06;100.00;98452.63;4980539;28;20706;-70
2024/01/02 07:24:24;;;;;;;0.57;0.57;;;;;;;7.09;100.00;98444.78;4981387;28;20250;-69
2024/01/02 07:26:49;;;;;;;0.50;0.50;;;;;;;7.09;100.00;98444.78;5004117;28;20184;-70
2024/01/02 07:29:15;;;;;;;0.30;0.30;;;;;;;7.13;100.00;98454.78;4991618;28;20194;-69
2024/01/02 07:31:40;;;;;;;0.60;0.60;;;;;;;7.12;100.00;98443.75;4993973;28;20317;-70
2024/01/02 07:34:05;;;;;;;0.30;0.30;;;;;;;7.15;100.00;98456.31;4990275;28;20218;-70
2024/01/02 07:36:30;;;;;;;0.90;0.87;;;;;;;7.18;100.00;98455.28;4990816;28;20182;-72
2024/01/02 07:38:56;;;;;;;0.47;0.47;;;;;;;7.22;100.00;98444.75;4991846;28;20269;-72
2024/01/02 07:41:21;;;;;;;0.40;0.40;;;;;;;7.21;100.00;98439.75;4984641;28;20223;-74
2024/01/02 07:43:46;;;;;;;0.43;0.43;;;;;;;7.24;100.00;98458.28;4995688;28;20263;-73
2024/01/02 07:46:12;;;;;;;0.43;0.40;;;;;;;7.33;100.00;98449.16;4986091;28;20671;-74
2024/01/02 07:48:37;;;;;;;0.53;0.53;;;;;;;7.32;100.00;98455.19;4987633;28;20199;-73
2024/01/02 07:51:04;;;;;;;0.70;0.70;;;;;;;7.35;100.00;98454.97;4985524;28;20244;-74
2024/01/02 07:53:29;;;;;;;0.50;0.50;;;;;;;7.41;100.00;98451.19;4994619;28;20257;-61
2024/01/02 07:55:54;;;;;;;0.40;0.40;;;;;;;7.54;100.00;98443.47;4990937;28;20183;-62
2024/01/02 07:58:19;;;;;;;0.50;0.50;;;;;;;7.76;100.00;98437.72;4991160;28;20729;-61
2024/01/02 08:00:45;;;;;;;0.70;0.70;;;;;;;7.77;100.00;98433.41;4985284;28;20238;-61
2024/01/02 08:03:10;;;;;;;0.63;0.63;;;;;;;7.79;100.00;98427.28;5001290;28;20198;-75
2024/01/02 08:05:35;;;;;;;0.40;0.40;;;;;;;7.75;100.00;98416.41;4989770;28;20180;-72
2024/01/02 08:08:02;;;;;;;0.80;0.40;;;;;;;7.78;100.00;98429.91;4987944;28;20198;-72
2024/01/02 08:10:27;;;;;;;0.60;0.60;;;;;;;7.73;100.00;98417.47;4983265;28;20231;-71
2024/01/02 08:12:53;;;;;;;0.50;0.50;;;;;;;7.74;100.00;98427.59;4993456;28;20184;-71
2024/01/02 08:15:18;;;;;;;0.50;0.50;;;;;;;7.77;100.00;98424.00;4989724;28;20498;-72
2024/01/02 08:17:43;;;;;;;0.87;0.60;;;;;;;7.75;100.00;98410.47;4991764;28;20271;-71
2024/01/02 08:20:10;;;;;;;0.80;0.80;;;;;;;7.79;100.00;98423.88;4995926;28;20674;-72
2024/01/02 08:22:35;;;;;;;0.90;0.90;;;;;;;7.80;100.00;98420.41;5001613;28;20176;-72
2024/01/02 08:25:00;;;;;;;0.60;0.60;;;;;;;7.89;100.00;98428.25;4991119;28;20207;-71
2024/01/02 08:27:26;;;;;;;1.10;1.00;;;;;;;7.91;100.00;98413.59;4992657;28;20176;-71
2024/01/02 08:29:51;;;;;;;1.63;1.13;;;;;;;7.99;100.00;98428.41;5010235;28;20621;-73
2024/01/02 08:32:17;;;;;;;0.57;0.40;;;;;;;8.00;100.00;98424.09;4953899;28;20238;-72
2024/01/02 08:34:43;;;;;;;0.80;0.80;;;;;;;8.10;100.00;98429.41;4988352;28;20588;-71
2024/01/02 08:37:08;;;;;;;0.60;0.60;;;;;;;8.09;100.00;98436.28;4989835;28;20183;-74
2024/01/02 08:39:34;;;;;;;1.00;0.83;;;;;;;8.10;100.00;98430.22;4993150;28;20293;-71
2024/01/02 08:41:59;;;;;;;0.83;0.60;;;;;;;8.14;100.00;98423.94;4998443;28;20233;-70
2024/01/02 08:44:25;;;;;;;0.50;0.50;;;;;;;8.20;100.00;98413.28;4993344;28;20183;-71
2024/01/02 08:46:50;;;;;;;0.47;0.47;;;;;;;8.24;100.00;98426.69;4994587;28;20224;-70
2024/01/02 08:49:15;;;;;;;0.37;0.37;;;;;;;8.24;100.00;98429.25;4999769;28;20191;-70
2024/01/02 08:51:41;;;;;;;0.50;0.50;;;;;;;8.31;100.00;98452.66;4987668;28;20250;-71
2024/01/02 08:54:06;;;;;;;0.50;0.50;;;;;;;8.30;100.00;98439.06;4988892;28;20182;-71
2024/01/02 08:56:32;;;;;;;0.40;0.40;;;;;;;8.35;100.00;98444.66;4991355;28;20277;-70
2024/01/02 08:58:57;;;;;;;0.97;0.40;;;;;;;8.47;100.00;98452.41;4991854;28;20521;-71
2024/01/02 09:01:22;;;;;;;0.40;0.40;;;;;;;8.46;100.00;98458.44;4982883;28;20334;-73
2024/01/02 09:03:47;;;;;;;0.50;0.50;;;;;;;8.50;100.00;98450.44;4998237;28;20190;-70
2024/01/02 09:06:17;;;;;;;0.30;0.30;;;;;;;8.53;100.00;98460.50;4992771;28;20270;-70
2024/01/02 09:08:43;;;;;;;0.50;0.50;;;;;;;8.51;100.00;98464.09;5008122;28;20203;-70
2024/01/02 09:11:12;;;;;;;0.60;0.60;;;;;;;8.50;100.00;98459.88;4987664;28;20682;-70
2024/01/02 09:13:37;;;;;;;0.50;0.50;;;;;;;8.56;100.00;98456.88;4991257;28;20183;-70
2024/01/02 09:16:02;;;;;;;0.27;0.27;;;;;;;8.50;100.00;98445.31;4993644;28;20194;-71
2024/01/02 09:18:28;;;;;;;3.70;2.83;;;;;;;8.47;100.00;98437.88;4986083;28;20258;-71
2024/01/02 09:20:54;;;;;;;2.60;1.87;;;;;;;8.54;100.00;98459.53;4984228;28;20242;-70
2024/01/02 09:23:19;;;;;;;0.93;0.50;;;;;;;8.55;100.00;98462.94;4993774;28;20509;-74
2024/01/02 09:25:46;;;;;;;0.40;0.40;;;;;;;8.53;100.00;98457.94;5004240;28;20191;-71
2024/01/02 09:28:13;;;;;;;0.30;0.30;;;;;;;8.52;100.00;98456.28;4998555;28;20187;-71
2024/01/02 09:30:38;;;;;;;0.97;0.60;;;;;;;8.53;100.00;98457.94;4988342;28;20230;-71
2024/01/02 09:33:03;;;;;;;0.50;0.50;;;;;;;8.59;100.00;98458.41;5027957;28;20277;-72
2024/01/02 09:35:29;;;;;;;0.83;0.40;;;;;;;8.56;100.00;98460.25;5013510;28;20629;-70
2024/01/02 09:37:54;;;;;;;0.33;0.33;;;;;;;8.62;100.00;98466.69;5012463;28;20202;-71
2024/01/02 09:40:59;;;;;;;0.40;0.40;;;;;;;8.63;100.00;98477.75;4998522;28;20207;-70
2024/01/02 09:43:34;;;;;;;0.77;0.60;;;;;;;8.59;100.00;98474.59;5002183;28;20669;-71
2024/01/02 09:46:10;;;;;;;0.40;0.40;;;;;;;8.65;100.00;98481.03;5007919;28;20182;-69
2024/01/02 09:49:11;;;;;;;0.50;0.50;;;;;;;8.62;100.00;98473.53;4985910;28;20210;-74
2024/01/02 09:51:51;;;;;;;0.60;0.60;;;;;;;8.66;100.00;98488.59;4987223;28;20234;-72
2024/01/02 09:54:44;;;;;;;0.50;0.50;;;;;;;8.62;100.00;98482.06;5001482;28;20178;-73
2024/01/02 09:57:16;;;;;;;0.60;0.60;;;;;;;8.62;100.00;98486.38;5012565;28;20199;-72
2024/01/02 09:59:57;;;;;;;0.40;0.40;;;;;;;8.65;100.00;98473.34;4991596;28;20207;-72
2024/01/02 10:02:41;;;;;;;0.53;0.53;;;;;;;8.82;100.00;98475.50;5005588;28;20598;-71
2024/01/02 10:05:37;;;;;;;0.37;0.37;;;;;;;8.85;100.00;98464.19;4989464;28;20191;-70
2024/01/02 10:08:11;;;;;;;0.70;0.70;;;;;;;8.88;100.00;98461.38;5002289;28;20206;-71
2024/01/02 10:10:50;;;;;;;0.50;0.50;;;;;;;8.94;100.00;98480.63;4985575;28;20244;-71
2024/01/02 10:13:55;;;;;;;0.70;0.60;;;;;;;8.94;100.00;98465.25;4994902;28;20277;-71
2024/01/02 10:16:29;;;;;;;0.60;0.60;;;;;;;8.92;100.00;98462.81;4980809;28;20210;-72
2024/01/02 10:19:06;;;;;;;0.93;0.60;;;;;;;8.92;100.00;98461.97;4981396;28;20170;-72
2024/01/02 10:21:42;;;;;;;1.63;0.60;;;;;;;9.06;100.00;98463.53;4990788;28;20219;-72
2024/01/02 10:24:37;;;;;;;0.53;0.53;;;;;;;9.04;100.00;98446.50;5007856;28;20190;-72
2024/01/02 10:27:09;;;;;;;0.53;0.53;;;;;;;9.13;100.00;98446.72;5009447;28;20184;-71
2024/01/02 10:29:55;;;;;;;0.60;0.60;;;;;;;9.13;100.00;98449.28;4993513;28;20183;-72
2024/01/02 10:32:50;;;;;;;0.70;0.70;;;;;;;9.20;100.00;98446.19;5001401;28;20926;-72
2024/01/02 10:35:31;;;;;;;0.63;0.50;;;;;;;9.27;100.00;98445.72;5010731;28;20182;-72
2024/01/02 10:38:19;;;;;;;0.50;0.50;;;;;;;9.20;100.00;98437.66;5010161;28;20174;-70
2024/01/02 10:40:51;;;;;;;0.70;0.70;;;;;;;9.29;100.00;98433.56;4997075;28;20262;-71
2024/01/02 10:43:29;;;;;;;0.63;0.60;;;;;;;9.20;100.00;98425.66;4998263;28;20539;-72
2024/01/02 10:46:21;;;;;;;0.70;0.50;;;;;;;9.23;100.00;98428.91;4989478;28;20248;-71
2024/01/02 10:49:18;;;;;;;0.40;0.40;;;;;;;9.20;100.00;98432.53;5001363;28;20270;-72
2024/01/02 10:51:51;;;;;;;0.53;0.53;;;;;;;9.28;100.00;98440.47;4959939;28;20222;-71
2024/01/02 10:54:50;;;;;;;0.67;0.67;;;;;;;9.27;100.00;98435.47;4988747;28;20238;-72
2024/01/02 10:57:27;;;;;;;0.77;0.73;;;;;;;9.29;100.00;98431.84;4988866;28;20199;-71
2024/01/02 11:00:07;;;;;;;0.50;0.50;;;;;;;9.32;100.00;98433.34;5007412;28;20207;-72
2024/01/02 11:02:51;;;;;;;0.50;0.50;;;;;;;9.26;100.00;98428.69;4980470;28;20223;-70
2024/01/02 11:05:28;;;;;;;0.70;0.70;;;;;;;9.29;100.00;98426.72;4980980;28;20190;-70
2024/01/02 11:08:10;;;;;;;0.40;0.40;;;;;;;9.27;100.00;98436.25;5006665;28;20215;-71
2024/01/02 11:10:48;;;;;;;0.60;0.60;;;;;;;9.33;100.00;98422.97;5000206;28;20910;-72
2024/01/02 11:13:15;;;;;;;1.17;0.53;;;;;;;9.36;100.00;98427.88;4999970;28;20239;-71
2024/01/02 11:15:41;;;;;;;0.63;0.63;;;;;;;9.32;100.00;98425.66;5006790;28;20266;-71
2024/01/02 11:18:07;;;;;;;0.50;0.50;;;;;;;9.31;100.00;98412.00;4990972;28;20183;-59
2024/01/02 11:21:00;;;;;;;0.60;0.60;;;;;;;9.35;100.00;98410.84;4985182;28;20238;-69
2024/01/02 11:23:29;;;;;;;0.77;0.63;;;;;;;9.39;100.00;98413.16;4997331;28;20654;-70
2024/01/02 11:26:12;;;;;;;1.00;0.70;;;;;;;9.37;100.00;98414.09;5004952;28;20191;-70
2024/01/02 11:28:40;;;;;;;0.87;0.60;;;;;;;9.38;100.00;98409.78;4981115;28;20171;-71
2024/01/02 11:31:09;;;;;;;0.50;0.50;;;;;;;9.29;100.00;98408.75;4985195;28;20219;-69
2024/01/02 11:33:44;;;;;;;0.80;0.80;;;;;;;9.32;100.00;98407.69;4990586;28;20175;-68
2024/01/02 11:36:18;;;;;;;0.70;0.70;;;;;;;9.25;100.00;98406.53;4989066;28;20639;-69